Time;durP1;ratioP1;P1;durP2;ratioP2;P2;SDS_P1;SDS_P2;PMS_P1;PMS_P2;Temp;Humidity;BMP_temperature;BMP_pressure;BME280_temperature;BME280_humidity;BME280_pressure;Samples;Min_cycle;Max_cycle;Signal;HPM_P1;HPM_P2
2022/04/23 00:02:00;;;;;;;52.95;15.90;;;9.70;90.80;;;;;;5100148;28;20062;-88
2022/04/23 00:04:28;;;;;;;54.15;17.55;;;9.70;90.70;;;;;;5100192;28;20377;-89
2022/04/23 00:06:54;;;;;;;51.22;16.98;;;9.70;90.70;;;;;;5100033;28;20500;-88
2022/04/23 00:09:19;;;;;;;55.33;17.55;;;9.70;90.70;;;;;;5100107;28;20028;-89
2022/04/23 00:11:45;;;;;;;57.33;18.38;;;9.70;90.60;;;;;;5099915;28;20089;-89
2022/04/23 00:14:11;;;;;;;47.13;16.15;;;9.70;90.90;;;;;;5100186;28;20126;-89
2022/04/23 00:16:37;;;;;;;48.60;14.32;;;9.70;90.70;;;;;;5099931;28;20474;-89
2022/04/23 00:19:02;;;;;;;34.85;13.30;;;9.70;91.10;;;;;;5117913;28;20034;-89
2022/04/23 00:21:28;;;;;;;33.60;13.32;;;9.70;91.50;;;;;;5099754;28;20092;-89
2022/04/23 00:23:54;;;;;;;30.95;12.73;;;9.70;92.20;;;;;;5099962;28;20020;-88
2022/04/23 00:26:20;;;;;;;29.80;11.18;;;9.70;92.70;;;;;;5099860;28;20020;-87
2022/04/23 00:28:46;;;;;;;18.58;9.30;;;9.60;93.20;;;;;;5099605;28;20627;-88
2022/04/23 00:31:11;;;;;;;19.13;8.85;;;9.50;93.40;;;;;;5099608;28;20381;-88
2022/04/23 00:33:37;;;;;;;19.10;8.95;;;9.50;93.80;;;;;;5117632;28;20136;-88
2022/04/23 00:36:10;;;;;;;20.48;9.57;;;9.50;93.70;;;;;;5099390;28;20045;-88
2022/04/23 00:38:42;;;;;;;23.10;10.60;;;9.40;94.10;;;;;;5117629;28;20027;-88
2022/04/23 00:41:43;;;;;;;28.13;11.35;;;9.40;94.40;;;;;;5099358;28;20431;-88
2022/04/23 00:43:54;;;;;;;23.55;10.63;;;9.40;95.00;;;;;;5117489;28;20015;-88
2022/04/23 00:46:20;;;;;;;21.63;10.48;;;9.30;95.20;;;;;;5099484;28;20024;-88
2022/04/23 00:48:46;;;;;;;24.25;11.13;;;9.30;95.40;;;;;;5099305;28;20111;-89
2022/04/23 00:51:12;;;;;;;24.63;10.93;;;9.30;95.70;;;;;;5099193;28;20027;-89
2022/04/23 00:53:38;;;;;;;34.13;13.32;;;9.20;95.90;;;;;;5099319;28;20432;-89
2022/04/23 00:56:04;;;;;;;32.50;11.32;;;9.20;96.10;;;;;;5099486;28;20028;-89
2022/04/23 00:58:30;;;;;;;25.30;11.05;;;9.20;96.10;;;;;;5117521;28;20028;-89
2022/04/23 01:00:55;;;;;;;32.00;11.10;;;9.20;96.30;;;;;;5098941;28;20023;-89
2022/04/23 01:03:22;;;;;;;36.15;13.40;;;9.20;96.50;;;;;;5117011;28;20051;-89
2022/04/23 01:05:48;;;;;;;45.10;14.52;;;9.20;96.70;;;;;;5099016;28;20019;-89
2022/04/23 01:08:19;;;;;;;57.47;18.08;;;9.20;96.90;;;;;;5098926;28;20072;-89
2022/04/23 01:10:45;;;;;;;73.38;21.85;;;9.10;97.00;;;;;;5099034;28;20072;-88
2022/04/23 01:13:14;;;;;;;83.65;25.45;;;9.20;97.20;;;;;;5117041;28;20115;-88
2022/04/23 01:15:43;;;;;;;81.78;23.83;;;9.20;97.60;;;;;;5116726;28;20030;-87
2022/04/23 01:18:08;;;;;;;73.45;21.25;;;9.10;98.10;;;;;;5098773;28;20023;-87
2022/04/23 01:20:36;;;;;;;68.90;21.88;;;9.00;98.60;;;;;;5098522;28;20024;-87
2022/04/23 01:23:02;;;;;;;60.72;19.95;;;9.00;99.00;;;;;;5098521;28;20027;-88
2022/04/23 01:25:28;;;;;;;42.05;15.90;;;8.90;99.40;;;;;;5098868;28;20378;-88
2022/04/23 01:27:54;;;;;;;29.73;13.75;;;8.90;99.90;;;;;;5116631;28;20020;-87
2022/04/23 01:30:20;;;;;;;21.10;12.73;;;8.80;99.90;;;;;;5098508;28;20115;-88
2022/04/23 01:32:46;;;;;;;21.98;13.60;;;8.80;99.90;;;;;;5098515;28;20106;-89
2022/04/23 01:35:12;;;;;;;25.10;15.65;;;8.80;99.90;;;;;;5098474;28;20024;-89
2022/04/23 01:37:37;;;;;;;57.40;24.85;;;8.70;99.90;;;;;;5098516;28;20114;-89
2022/04/23 01:40:04;;;;;;;38.60;20.85;;;8.70;99.90;;;;;;5116364;28;20423;-90
2022/04/23 01:42:29;;;;;;;25.63;15.65;;;8.70;99.90;;;;;;5098375;28;20027;-90
2022/04/23 01:44:55;;;;;;;18.55;12.65;;;8.70;99.90;;;;;;5098305;28;20445;-89
2022/04/23 01:47:21;;;;;;;16.80;10.52;;;8.70;99.90;;;;;;5097907;28;20118;-90
2022/04/23 01:49:46;;;;;;;14.50;10.70;;;8.60;99.90;;;;;;5097456;28;20110;-89
2022/04/23 01:52:13;;;;;;;13.40;9.60;;;8.60;99.90;;;;;;5098038;28;20024;-87
2022/04/23 01:54:39;;;;;;;12.23;9.52;;;8.60;99.90;;;;;;5097985;28;20128;-88
2022/04/23 01:57:05;;;;;;;14.88;10.18;;;8.60;99.90;;;;;;5098085;28;20465;-88
2022/04/23 01:59:31;;;;;;;13.05;8.88;;;8.50;99.90;;;;;;5098160;28;20465;-90
2022/04/23 02:01:58;;;;;;;15.73;10.52;;;8.50;99.90;;;;;;5097795;28;20024;-90
2022/04/23 02:04:25;;;;;;;11.88;9.90;;;8.40;99.90;;;;;;5097830;28;20047;-91
2022/04/23 02:06:51;;;;;;;11.18;9.68;;;8.30;99.90;;;;;;5097964;28;20020;-90
2022/04/23 02:09:17;;;;;;;12.40;9.57;;;8.30;99.90;;;;;;5097731;28;20047;-91
2022/04/23 02:11:43;;;;;;;13.38;9.25;;;8.30;99.90;;;;;;5115997;28;20020;-93
2022/04/23 02:14:09;;;;;;;11.05;9.38;;;8.30;99.90;;;;;;5097688;28;20067;-92
2022/04/23 02:16:35;;;;;;;12.05;9.18;;;8.30;99.90;;;;;;5097705;28;20030;-92
2022/04/23 02:19:03;;;;;;;14.55;10.50;;;8.30;99.90;;;;;;5097744;28;20110;-92
2022/04/23 02:21:30;;;;;;;12.57;9.35;;;8.20;99.90;;;;;;5097528;28;20096;-93
2022/04/23 02:23:56;;;;;;;10.38;9.23;;;8.30;99.90;;;;;;5097477;28;20020;-93
2022/04/23 02:26:23;;;;;;;12.55;10.10;;;8.20;99.90;;;;;;5097718;28;20020;-92
2022/04/23 02:28:52;;;;;;;13.63;10.07;;;8.20;99.90;;;;;;5097454;28;20540;-93
2022/04/23 02:31:18;;;;;;;11.30;9.23;;;8.20;99.90;;;;;;5115392;28;20489;-93
2022/04/23 02:33:44;;;;;;;14.10;9.82;;;8.20;99.90;;;;;;5097527;28;20105;-92
2022/04/23 02:36:10;;;;;;;10.60;9.13;;;8.20;99.90;;;;;;5115380;28;20048;-92
2022/04/23 02:38:40;;;;;;;11.50;9.90;;;8.30;99.90;;;;;;5097432;28;20020;-93
2022/04/23 02:41:09;;;;;;;11.05;9.55;;;8.30;99.90;;;;;;5096984;28;20470;-92
2022/04/23 02:43:38;;;;;;;11.43;8.90;;;8.30;99.90;;;;;;5115279;28;20382;-92
2022/04/23 02:46:04;;;;;;;13.20;10.32;;;8.30;99.90;;;;;;5097139;28;20076;-92
2022/04/23 02:48:30;;;;;;;17.55;10.38;;;8.30;99.90;;;;;;5115064;28;20031;-93
2022/04/23 02:50:55;;;;;;;13.00;10.70;;;8.30;99.90;;;;;;5097518;28;20020;-92
2022/04/23 02:53:21;;;;;;;15.30;11.85;;;8.30;99.90;;;;;;5097223;28;20026;-92
2022/04/23 02:55:47;;;;;;;14.50;11.00;;;8.30;99.90;;;;;;5097331;28;20057;-92
2022/04/23 02:58:13;;;;;;;14.30;11.23;;;8.40;99.90;;;;;;5097027;28;20030;-92
2022/04/23 03:00:41;;;;;;;15.07;11.73;;;8.30;99.90;;;;;;5096954;28;20024;-91
2022/04/23 03:03:07;;;;;;;14.32;11.10;;;8.30;99.90;;;;;;5114123;28;20034;-91
2022/04/23 03:05:33;;;;;;;15.77;11.43;;;8.30;99.90;;;;;;5097016;28;20019;-91
2022/04/23 03:08:00;;;;;;;16.02;10.98;;;8.30;99.90;;;;;;5097064;28;20030;-92
2022/04/23 03:10:27;;;;;;;12.80;10.45;;;8.30;99.90;;;;;;5114829;28;20027;-91
2022/04/23 03:12:55;;;;;;;12.85;10.60;;;8.30;99.90;;;;;;5096930;28;20500;-91
2022/04/23 03:15:21;;;;;;;15.60;10.48;;;8.30;99.90;;;;;;5096774;28;20068;-93
2022/04/23 03:17:47;;;;;;;12.05;10.25;;;8.40;99.90;;;;;;5096905;28;20047;-92
2022/04/23 03:20:13;;;;;;;17.20;10.50;;;8.40;99.90;;;;;;5096881;28;20031;-90
2022/04/23 03:22:40;;;;;;;11.70;9.75;;;8.40;99.90;;;;;;5096662;28;20473;-91
2022/04/23 03:25:07;;;;;;;13.52;10.35;;;8.40;99.90;;;;;;5096683;28;20077;-90
2022/04/23 03:27:33;;;;;;;13.32;10.43;;;8.40;99.90;;;;;;5096713;28;20024;-88
2022/04/23 03:29:59;;;;;;;13.02;10.60;;;8.30;99.90;;;;;;5096604;28;20048;-89
2022/04/23 03:32:26;;;;;;;13.60;11.30;;;8.30;99.90;;;;;;5096568;28;20072;-91
2022/04/23 03:34:51;;;;;;;13.18;11.50;;;8.30;99.90;;;;;;5096611;28;20028;-90
2022/04/23 03:37:17;;;;;;;13.98;11.80;;;8.30;99.90;;;;;;5096346;28;20115;-91
2022/04/23 03:39:44;;;;;;;15.43;11.10;;;8.20;99.90;;;;;;5096437;28;20023;-90
2022/04/23 03:42:10;;;;;;;15.95;11.50;;;8.20;99.90;;;;;;5096382;28;20024;-91
2022/04/23 03:44:36;;;;;;;16.15;10.90;;;8.30;99.90;;;;;;5114660;28;20518;-92
2022/04/23 03:47:02;;;;;;;16.42;12.25;;;8.30;99.90;;;;;;5096596;28;20032;-92
2022/04/23 03:49:31;;;;;;;15.63;11.80;;;8.30;99.90;;;;;;5096622;28;20030;-92
2022/04/23 03:51:57;;;;;;;13.80;11.32;;;8.30;99.90;;;;;;5096552;28;20463;-92
2022/04/23 03:54:23;;;;;;;17.83;12.38;;;8.30;99.90;;;;;;5096513;28;20122;-92
2022/04/23 03:56:49;;;;;;;14.05;11.63;;;8.40;99.90;;;;;;5096619;28;20599;-92
2022/04/23 03:59:20;;;;;;;15.15;11.85;;;8.40;99.90;;;;;;5096378;28;20061;-92
2022/04/23 04:01:47;;;;;;;14.68;11.95;;;8.40;99.90;;;;;;5096369;28;20107;-91
2022/04/23 04:04:14;;;;;;;19.50;14.13;;;8.40;99.90;;;;;;5096095;28;20020;-91
2022/04/23 04:06:40;;;;;;;23.52;15.50;;;8.50;99.90;;;;;;5096225;28;20102;-91
2022/04/23 04:09:06;;;;;;;25.45;16.73;;;8.50;99.90;;;;;;5096268;28;20027;-91
2022/04/23 04:12:01;;;;;;;24.92;16.77;;;8.40;99.90;;;;;;5096287;28;20058;-91
2022/04/23 04:14:17;;;;;;;21.10;15.90;;;8.50;99.90;;;;;;5116789;28;20028;-92
2022/04/23 04:16:45;;;;;;;21.67;15.68;;;8.50;99.90;;;;;;5099949;28;20027;-91
2022/04/23 04:19:10;;;;;;;20.30;14.75;;;8.50;99.90;;;;;;5100060;28;20024;-91
2022/04/23 04:21:36;;;;;;;19.83;14.98;;;8.50;99.90;;;;;;5117977;28;20114;-92
2022/04/23 04:24:02;;;;;;;20.30;13.43;;;8.50;99.90;;;;;;5099844;28;20058;-91
2022/04/23 04:26:27;;;;;;;19.58;13.75;;;8.60;99.90;;;;;;5099858;28;20107;-92
2022/04/23 04:28:53;;;;;;;19.52;15.27;;;8.60;99.90;;;;;;5117985;28;20044;-91
2022/04/23 04:34:02;;;;;;;21.38;14.80;;;8.70;99.90;;;;;;5117844;28;20058;-91
2022/04/23 04:36:28;;;;;;;17.45;14.20;;;8.80;99.90;;;;;;5099734;28;20071;-91
2022/04/23 04:38:53;;;;;;;20.77;15.13;;;8.90;99.90;;;;;;5099810;28;20051;-91
2022/04/23 04:41:19;;;;;;;19.98;15.40;;;8.90;99.90;;;;;;5117680;28;20537;-91
2022/04/23 04:43:46;;;;;;;18.15;15.10;;;9.00;99.90;;;;;;5099584;28;20176;-91
2022/04/23 04:46:12;;;;;;;21.98;15.38;;;9.10;99.90;;;;;;5099529;28;20059;-91
2022/04/23 04:48:37;;;;;;;18.50;15.00;;;9.20;99.90;;;;;;5099348;28;20112;-91
2022/04/23 04:51:03;;;;;;;19.45;14.75;;;9.20;99.90;;;;;;5099343;28;20019;-91
2022/04/23 04:53:28;;;;;;;16.92;14.07;;;9.30;99.90;;;;;;5099412;28;20024;-92
2022/04/23 04:55:54;;;;;;;18.17;13.25;;;9.40;99.90;;;;;;5099438;28;20027;-90
2022/04/23 04:58:20;;;;;;;17.08;13.02;;;9.50;99.90;;;;;;5099368;28;20028;-91
2022/04/23 05:00:46;;;;;;;18.65;14.85;;;9.60;99.90;;;;;;5099173;28;20019;-91
2022/04/23 05:03:11;;;;;;;16.23;13.88;;;9.60;99.90;;;;;;5117055;28;20367;-91
2022/04/23 05:05:37;;;;;;;17.42;13.88;;;9.70;99.90;;;;;;5099097;28;20081;-91
2022/04/23 05:08:03;;;;;;;18.00;15.00;;;9.80;99.90;;;;;;5117040;28;20466;-91
2022/04/23 05:10:29;;;;;;;16.30;14.10;;;9.90;99.90;;;;;;5098850;28;20077;-90
2022/04/23 05:12:54;;;;;;;17.20;13.75;;;10.00;99.90;;;;;;5099002;28;20081;-91
2022/04/23 05:15:20;;;;;;;19.27;14.63;;;10.00;99.90;;;;;;5098757;28;20145;-90
2022/04/23 05:17:46;;;;;;;18.75;14.90;;;10.10;99.90;;;;;;5098680;28;20030;-90
2022/04/23 05:20:12;;;;;;;19.52;15.45;;;10.00;99.90;;;;;;5098814;28;20024;-91
2022/04/23 05:22:37;;;;;;;19.52;15.18;;;10.10;99.90;;;;;;5098712;28;20035;-90
2022/04/23 05:25:03;;;;;;;17.35;13.93;;;10.10;99.90;;;;;;5115743;28;20020;-90
2022/04/23 05:27:29;;;;;;;18.75;14.48;;;10.10;99.90;;;;;;5098802;28;20027;-90
2022/04/23 05:29:55;;;;;;;19.00;14.38;;;10.00;99.90;;;;;;5116608;28;20043;-90
2022/04/23 05:32:20;;;;;;;20.20;14.38;;;10.10;99.90;;;;;;5098637;28;20024;-90
2022/04/23 05:34:46;;;;;;;19.58;15.02;;;10.10;99.90;;;;;;5098669;28;20035;-90
2022/04/23 05:37:11;;;;;;;20.35;15.32;;;10.10;99.90;;;;;;5098365;28;20027;-90
2022/04/23 05:39:37;;;;;;;22.33;15.35;;;10.10;99.90;;;;;;5098291;28;20458;-91
2022/04/23 05:42:03;;;;;;;20.80;15.55;;;10.10;99.90;;;;;;5098188;28;20030;-90
2022/04/23 05:44:29;;;;;;;19.25;14.43;;;10.20;99.90;;;;;;5116208;28;20024;-90
2022/04/23 05:46:54;;;;;;;19.35;15.48;;;10.20;99.90;;;;;;5098175;28;20026;-90
2022/04/23 05:49:20;;;;;;;24.10;15.75;;;10.30;99.90;;;;;;5116372;28;20015;-88
2022/04/23 05:51:45;;;;;;;19.45;14.82;;;10.30;99.90;;;;;;5098276;28;20023;-90
2022/04/23 05:54:11;;;;;;;21.35;15.63;;;10.40;99.90;;;;;;5098284;28;20028;-91
2022/04/23 05:56:37;;;;;;;21.95;15.93;;;10.50;99.90;;;;;;5098078;28;20034;-90
2022/04/23 05:59:02;;;;;;;19.88;15.20;;;10.50;99.90;;;;;;5116066;28;20106;-90
2022/04/23 06:01:28;;;;;;;20.20;15.43;;;10.60;99.90;;;;;;5097987;28;20475;-90
2022/04/23 06:03:53;;;;;;;19.17;14.57;;;10.70;99.90;;;;;;5098124;28;20020;-90
2022/04/23 06:06:20;;;;;;;22.40;16.50;;;10.80;99.90;;;;;;5097805;28;20027;-89
2022/04/23 06:08:46;;;;;;;19.17;14.88;;;10.90;99.90;;;;;;5097885;28;20115;-90
2022/04/23 06:11:12;;;;;;;22.23;15.35;;;10.90;99.90;;;;;;5097877;28;20458;-90
2022/04/23 06:13:38;;;;;;;21.27;16.13;;;11.00;99.90;;;;;;5097456;28;20035;-90
2022/04/23 06:16:03;;;;;;;17.73;13.32;;;11.10;99.90;;;;;;5097597;28;20026;-90
2022/04/23 06:18:29;;;;;;;18.77;14.68;;;11.20;99.90;;;;;;5097787;28;20030;-90
2022/04/23 06:20:55;;;;;;;18.10;14.05;;;11.30;99.90;;;;;;5115596;28;20442;-90
2022/04/23 06:23:20;;;;;;;19.45;14.30;;;11.40;99.90;;;;;;5097611;28;20122;-90
2022/04/23 06:25:46;;;;;;;19.23;13.10;;;11.60;99.90;;;;;;5097494;28;20029;-90
2022/04/23 06:28:12;;;;;;;16.77;13.45;;;11.60;99.90;;;;;;5097277;28;20360;-90
2022/04/23 06:30:38;;;;;;;15.95;12.23;;;11.80;99.90;;;;;;5097430;28;20030;-90
2022/04/23 06:33:04;;;;;;;14.73;11.95;;;11.90;99.90;;;;;;5097961;28;20565;-91
2022/04/23 06:35:30;;;;;;;14.43;11.75;;;12.10;99.90;;;;;;5097521;28;20074;-90
2022/04/23 06:37:57;;;;;;;15.85;12.80;;;12.20;99.90;;;;;;5097370;28;20378;-90
2022/04/23 06:40:23;;;;;;;12.82;10.90;;;12.20;99.90;;;;;;5115168;28;20432;-88
2022/04/23 06:42:49;;;;;;;16.33;10.85;;;12.40;99.90;;;;;;5115215;28;20031;-89
2022/04/23 06:45:14;;;;;;;12.48;9.75;;;12.50;99.90;;;;;;5096991;28;20072;-90
2022/04/23 06:47:40;;;;;;;10.95;9.70;;;12.60;99.90;;;;;;5096836;28;20019;-89
2022/04/23 06:50:07;;;;;;;13.43;10.45;;;12.70;99.90;;;;;;5097256;28;20016;-89
2022/04/23 06:52:33;;;;;;;11.63;9.50;;;12.80;99.90;;;;;;5096940;28;20047;-89
2022/04/23 06:54:59;;;;;;;11.82;10.07;;;12.90;99.90;;;;;;5097024;28;20031;-90
2022/04/23 06:57:25;;;;;;;12.60;10.05;;;13.10;99.70;;;;;;5097057;28;20094;-89
2022/04/23 06:59:51;;;;;;;10.70;8.68;;;13.30;99.60;;;;;;5096900;28;20046;-89
2022/04/23 07:02:18;;;;;;;12.55;8.80;;;13.50;99.40;;;;;;5096716;28;20030;-90
2022/04/23 07:04:44;;;;;;;9.75;8.75;;;13.60;98.50;;;;;;5096906;28;20462;-90
2022/04/23 07:07:10;;;;;;;12.13;8.90;;;13.70;98.50;;;;;;5097039;28;20023;-89
2022/04/23 07:09:37;;;;;;;10.43;8.43;;;13.80;98.60;;;;;;5097132;28;20044;-89
2022/04/23 07:12:04;;;;;;;8.95;7.78;;;13.80;98.10;;;;;;5097005;28;20027;-90
2022/04/23 07:14:29;;;;;;;7.97;7.18;;;13.90;98.30;;;;;;5114997;28;20031;-90
2022/04/23 07:16:55;;;;;;;9.57;7.55;;;14.10;97.80;;;;;;5096747;28;20024;-90
2022/04/23 07:19:20;;;;;;;12.02;8.35;;;14.20;97.60;;;;;;5096778;28;20066;-89
2022/04/23 07:21:46;;;;;;;10.95;8.20;;;14.20;97.40;;;;;;5096626;28;20027;-89
2022/04/23 07:24:13;;;;;;;9.35;8.35;;;14.30;97.50;;;;;;5096930;28;20080;-89
2022/04/23 07:26:40;;;;;;;10.30;8.07;;;14.40;96.50;;;;;;5096578;28;20027;-90
2022/04/23 07:29:07;;;;;;;8.55;7.40;;;14.40;96.80;;;;;;5096494;28;20385;-89
2022/04/23 07:31:34;;;;;;;8.02;6.07;;;14.50;96.10;;;;;;5096620;28;20050;-91
2022/04/23 07:39:28;;;;;;;7.05;5.80;;;14.80;91.60;;;;;;5114853;28;20389;-90
2022/04/23 07:41:54;;;;;;;6.43;5.40;;;14.90;91.80;;;;;;5096639;28;20023;-89
2022/04/23 07:44:21;;;;;;;7.43;4.70;;;15.00;89.90;;;;;;5096643;28;20031;-89
2022/04/23 07:46:47;;;;;;;5.32;4.82;;;15.20;85.80;;;;;;5114778;28;20072;-89
2022/04/23 07:49:13;;;;;;;5.43;4.63;;;15.20;82.80;;;;;;5117227;28;20466;-88
2022/04/23 07:51:40;;;;;;;5.88;4.65;;;15.40;81.20;;;;;;5100155;28;20039;-87
2022/04/23 07:54:06;;;;;;;5.63;4.70;;;15.40;81.10;;;;;;5118404;28;20473;-88
2022/04/23 07:56:31;;;;;;;4.78;4.38;;;15.60;80.00;;;;;;5100256;28;20064;-88
2022/04/23 07:58:57;;;;;;;5.35;4.55;;;15.80;79.20;;;;;;5100245;28;20482;-87
2022/04/23 08:01:22;;;;;;;6.22;4.20;;;15.90;75.90;;;;;;5100176;28;20053;-88
2022/04/23 08:03:48;;;;;;;5.10;4.10;;;15.90;75.20;;;;;;5118310;28;20455;-88
2022/04/23 08:06:14;;;;;;;4.45;4.05;;;15.90;75.90;;;;;;5118269;28;20039;-89
2022/04/23 08:08:40;;;;;;;4.88;4.15;;;16.00;74.60;;;;;;5100056;28;20031;-88
2022/04/23 08:11:06;;;;;;;4.57;4.00;;;16.00;73.40;;;;;;5099810;28;20038;-88
2022/04/23 08:13:32;;;;;;;4.70;4.07;;;15.80;72.50;;;;;;5118261;28;20028;-89
2022/04/23 08:15:59;;;;;;;5.20;4.10;;;15.80;74.00;;;;;;5099865;28;20087;-88
2022/04/23 08:18:26;;;;;;;4.25;3.88;;;15.70;73.00;;;;;;5100049;28;20020;-88
2022/04/23 08:20:52;;;;;;;4.50;4.10;;;15.70;73.40;;;;;;5118054;28;20019;-88
2022/04/23 08:23:19;;;;;;;5.53;4.28;;;15.80;73.40;;;;;;5099706;28;20086;-88
2022/04/23 08:25:46;;;;;;;5.00;4.50;;;15.80;72.50;;;;;;5099856;28;20043;-88
2022/04/23 08:30:57;;;;;;;4.07;3.70;;;16.00;72.20;;;;;;5117876;28;20505;-90
2022/04/23 08:33:23;;;;;;;4.57;3.60;;;16.20;71.30;;;;;;5099496;28;20398;-89
2022/04/23 08:35:50;;;;;;;3.75;3.33;;;16.30;70.50;;;;;;5099549;28;20028;-89
2022/04/23 08:38:16;;;;;;;3.40;3.10;;;16.50;71.20;;;;;;5117788;28;20016;-89
2022/04/23 08:40:47;;;;;;;5.95;3.25;;;16.70;69.10;;;;;;5099572;28;20047;-88
2022/04/23 08:43:13;;;;;;;3.30;3.00;;;16.80;67.20;;;;;;5117423;28;20023;-90
2022/04/23 08:45:39;;;;;;;3.70;2.95;;;17.00;66.20;;;;;;5099416;28;20039;-86
2022/04/23 08:48:11;;;;;;;3.80;2.70;;;17.10;64.40;;;;;;5099152;28;20068;-87
2022/04/23 08:50:37;;;;;;;3.25;2.95;;;17.20;63.60;;;;;;5099242;28;20026;-86
2022/04/23 08:53:08;;;;;;;5.05;3.00;;;17.10;63.30;;;;;;5099255;28;20161;-86
2022/04/23 08:55:34;;;;;;;3.63;3.10;;;17.20;65.00;;;;;;5117245;28;20024;-86
2022/04/23 08:58:00;;;;;;;3.92;3.13;;;17.30;64.50;;;;;;5098963;28;20035;-87
2022/04/23 09:00:26;;;;;;;3.45;3.10;;;17.50;64.60;;;;;;5098943;28;20108;-86
2022/04/23 09:02:52;;;;;;;5.68;3.47;;;17.60;62.40;;;;;;5117410;28;20059;-87
2022/04/23 09:05:19;;;;;;;3.28;2.97;;;17.70;63.20;;;;;;5098991;28;20016;-86
2022/04/23 09:07:56;;;;;;;3.45;2.90;;;17.70;63.80;;;;;;5098783;28;20059;-86
2022/04/23 09:10:43;;;;;;;3.47;2.70;;;17.70;63.40;;;;;;5098875;28;20423;-87
2022/04/23 09:13:09;;;;;;;4.07;2.80;;;17.70;62.30;;;;;;5098739;28;20122;-87
2022/04/23 09:24:08;;;;;;;3.92;3.53;;;17.40;59.30;;;;;;5117312;28;20038;-86
2022/04/23 09:26:34;;;;;;;4.00;3.60;;;17.50;59.60;;;;;;5098856;28;20055;-86
2022/04/23 09:29:15;;;;;;;3.92;3.53;;;17.60;59.70;;;;;;5098278;28;20102;-90
2022/04/23 09:31:42;;;;;;;5.55;3.30;;;17.60;58.10;;;;;;5116563;28;20027;-87
2022/04/23 09:34:18;;;;;;;3.83;3.40;;;17.60;59.10;;;;;;5098354;28;20561;-86
2022/04/23 09:36:55;;;;;;;4.90;3.17;;;17.70;59.30;;;;;;5098393;28;20020;-85
2022/04/23 09:39:38;;;;;;;3.42;3.10;;;17.90;58.70;;;;;;5116428;28;20043;-87
2022/04/23 09:42:19;;;;;;;4.60;3.40;;;18.00;57.50;;;;;;5116613;28;20080;-87
2022/04/23 09:44:46;;;;;;;6.15;3.78;;;18.10;58.50;;;;;;5098346;28;20024;-86
2022/04/23 09:47:30;;;;;;;4.10;3.30;;;18.00;57.30;;;;;;5116351;28;20068;-86
2022/04/23 09:49:57;;;;;;;5.30;3.38;;;17.90;57.50;;;;;;5098134;28;20019;-86
2022/04/23 09:52:30;;;;;;;3.97;3.45;;;17.80;58.10;;;;;;5116155;28;20030;-88
2022/04/23 09:55:02;;;;;;;5.18;3.55;;;17.90;58.20;;;;;;5116164;28;20035;-88
2022/04/23 09:57:27;;;;;;;4.57;3.30;;;18.10;58.50;;;;;;5098105;28;20373;-87
2022/04/23 09:59:54;;;;;;;4.63;3.83;;;18.10;57.80;;;;;;5115877;28;20028;-86
2022/04/23 10:02:20;;;;;;;3.47;3.13;;;17.90;56.20;;;;;;5097812;28;20426;-87
2022/04/23 10:04:46;;;;;;;3.88;3.35;;;17.90;56.50;;;;;;5097759;28;20080;-85
2022/04/23 10:07:13;;;;;;;4.78;4.00;;;17.70;56.00;;;;;;5098464;28;20115;-84
2022/04/23 10:09:42;;;;;;;3.58;3.10;;;17.70;56.30;;;;;;5097589;28;20504;-86
2022/04/23 10:12:10;;;;;;;7.35;3.60;;;17.50;56.70;;;;;;5096986;28;20035;-86
2022/04/23 10:14:41;;;;;;;5.25;3.47;;;17.50;56.60;;;;;;5097594;28;20023;-86
2022/04/23 10:17:10;;;;;;;4.82;3.25;;;17.40;56.80;;;;;;5097684;28;20555;-86
2022/04/23 10:19:36;;;;;;;4.20;3.50;;;17.40;57.00;;;;;;5097391;28;20054;-85
2022/04/23 10:22:09;;;;;;;4.43;3.65;;;17.40;57.60;;;;;;5115429;28;20035;-85
2022/04/23 10:25:12;;;;;;;3.90;3.35;;;17.50;57.50;;;;;;5097288;28;20023;-88
2022/04/23 10:27:38;;;;;;;4.40;3.30;;;17.70;57.10;;;;;;5097373;28;20027;-87
2022/04/23 10:30:06;;;;;;;4.20;3.53;;;17.80;57.20;;;;;;5097206;28;20100;-86
2022/04/23 10:32:40;;;;;;;4.05;3.40;;;17.70;56.30;;;;;;5097284;28;20051;-87
2022/04/23 10:35:17;;;;;;;3.78;3.38;;;17.50;57.00;;;;;;5097282;28;20027;-86
2022/04/23 10:37:44;;;;;;;3.92;3.35;;;17.20;57.30;;;;;;5097182;28;20031;-87
2022/04/23 10:40:20;;;;;;;4.43;3.58;;;16.90;57.50;;;;;;5096995;28;20024;-86
2022/04/23 10:43:04;;;;;;;4.68;3.60;;;16.70;57.50;;;;;;5096936;28;20024;-86
2022/04/23 10:45:38;;;;;;;4.90;3.40;;;16.60;57.40;;;;;;5097053;28;20016;-87
2022/04/23 10:48:25;;;;;;;4.80;3.88;;;16.40;57.60;;;;;;5097078;28;20497;-87
2022/04/23 10:51:12;;;;;;;4.00;3.60;;;16.20;57.30;;;;;;5096937;28;20024;-86
2022/04/23 10:53:37;;;;;;;4.00;3.38;;;16.10;58.40;;;;;;5097047;28;20018;-86
2022/04/23 10:56:09;;;;;;;6.07;3.47;;;16.20;59.00;;;;;;5097102;28;20020;-86
2022/04/23 10:58:37;;;;;;;3.65;3.30;;;16.20;58.80;;;;;;5115117;28;20051;-88
2022/04/23 11:01:23;;;;;;;5.30;3.33;;;16.30;58.60;;;;;;5096741;28;20027;-88
2022/04/23 11:03:55;;;;;;;3.65;3.20;;;16.20;57.50;;;;;;5096931;28;20039;-84
2022/04/23 11:12:38;;;;;;;4.10;3.35;;;15.90;59.80;;;;;;5085627;28;20051;-86
2022/04/23 11:15:16;;;;;;;3.53;3.05;;;16.00;59.70;;;;;;5114796;28;20024;-88
2022/04/23 11:17:47;;;;;;;3.47;3.17;;;16.20;60.00;;;;;;5096522;28;20024;-87
2022/04/23 11:20:13;;;;;;;3.53;2.85;;;16.20;59.10;;;;;;5096451;28;20509;-87
2022/04/23 11:22:39;;;;;;;4.63;3.08;;;16.10;59.10;;;;;;5096737;28;20436;-88
2022/04/23 11:25:06;;;;;;;3.30;3.00;;;16.00;59.90;;;;;;5101107;28;20019;-89
2022/04/23 11:27:36;;;;;;;4.15;3.75;;;16.00;60.50;;;;;;5100929;28;20023;-89
2022/04/23 11:30:05;;;;;;;5.63;3.70;;;16.10;60.50;;;;;;5100884;28;20180;-90
2022/04/23 11:32:33;;;;;;;3.97;3.57;;;16.00;60.40;;;;;;5118801;28;20032;-88
2022/04/23 11:35:01;;;;;;;3.60;3.30;;;16.10;61.00;;;;;;5100906;28;20130;-89
2022/04/23 11:37:34;;;;;;;3.70;3.40;;;16.10;61.20;;;;;;5100746;28;20051;-90
2022/04/23 11:40:28;;;;;;;3.45;3.15;;;16.10;61.50;;;;;;5100699;28;20020;-89
2022/04/23 11:42:54;;;;;;;3.67;3.05;;;16.20;61.60;;;;;;5098321;28;20031;-89
2022/04/23 11:45:21;;;;;;;3.78;3.30;;;16.30;62.30;;;;;;5118837;28;20073;-88
2022/04/23 11:47:47;;;;;;;4.70;3.28;;;16.40;61.90;;;;;;5100516;28;20066;-88
2022/04/23 11:50:21;;;;;;;3.10;2.80;;;16.50;61.10;;;;;;5118768;28;20047;-89
2022/04/23 11:53:01;;;;;;;3.50;3.17;;;16.50;61.00;;;;;;5100359;28;20482;-87
2022/04/23 11:55:28;;;;;;;3.95;3.20;;;16.60;60.60;;;;;;5100325;28;20023;-88
2022/04/23 11:57:59;;;;;;;8.43;3.83;;;16.60;61.10;;;;;;5100424;28;20032;-87
2022/04/23 12:00:25;;;;;;;3.80;3.42;;;16.70;61.40;;;;;;5100417;28;20023;-89
2022/04/23 12:02:52;;;;;;;5.72;3.60;;;16.80;62.00;;;;;;5118225;28;20426;-89
2022/04/23 12:05:28;;;;;;;4.63;4.20;;;17.00;61.50;;;;;;5100244;28;20072;-88
2022/04/23 12:07:54;;;;;;;4.65;3.88;;;17.20;61.70;;;;;;5100197;28;20020;-88
2022/04/23 12:10:28;;;;;;;5.18;3.60;;;17.60;61.90;;;;;;5100155;28;20049;-88
2022/04/23 12:12:57;;;;;;;4.30;3.88;;;18.20;62.80;;;;;;5099939;28;20378;-87
2022/04/23 12:15:23;;;;;;;4.37;3.90;;;19.20;61.10;;;;;;5100062;28;20038;-88
2022/04/23 12:17:53;;;;;;;4.57;3.97;;;20.80;60.10;;;;;;5099847;28;20113;-88
2022/04/23 12:20:23;;;;;;;4.07;3.50;;;22.10;56.50;;;;;;5100011;28;20047;-87
2022/04/23 12:23:05;;;;;;;6.50;5.35;;;23.30;55.50;;;;;;5099800;28;20115;-88
2022/04/23 12:25:32;;;;;;;5.90;5.35;;;24.10;52.30;;;;;;5100027;28;20019;-86
2022/04/23 12:27:59;;;;;;;6.00;3.70;;;24.50;51.60;;;;;;5099592;28;20061;-89
2022/04/23 12:41:58;;;;;;;3.88;3.38;;;21.60;54.60;;;;;;5117855;28;20069;-90
2022/04/23 12:44:45;;;;;;;4.63;2.83;;;20.40;55.00;;;;;;5099666;28;20102;-87
2022/04/23 12:47:27;;;;;;;2.78;2.53;;;19.70;54.00;;;;;;5099475;28;20028;-89
2022/04/23 12:50:00;;;;;;;3.72;3.10;;;19.10;54.40;;;;;;5099292;28;20050;-89
2022/04/23 12:52:38;;;;;;;3.22;2.80;;;18.60;55.30;;;;;;5099322;28;20024;-88
2022/04/23 12:55:36;;;;;;;3.08;2.78;;;18.20;55.80;;;;;;5099500;28;20114;-89
2022/04/23 12:58:06;;;;;;;3.17;2.88;;;18.10;57.30;;;;;;5099260;28;20034;-89
2022/04/23 13:00:42;;;;;;;4.70;3.45;;;18.30;57.30;;;;;;5099261;28;20047;-88
2022/04/23 13:03:37;;;;;;;3.63;3.33;;;18.20;57.10;;;;;;5099211;28;20055;-89
2022/04/23 13:06:04;;;;;;;3.85;3.45;;;18.30;57.40;;;;;;5117077;28;20016;-89
2022/04/23 13:11:30;;;;;;;4.25;3.20;;;18.20;57.70;;;;;;5117638;28;20034;-89
2022/04/23 13:14:01;;;;;;;5.85;3.40;;;18.30;58.10;;;;;;5099240;28;20032;-88
2022/04/23 13:16:28;;;;;;;4.40;3.30;;;18.40;58.00;;;;;;5117091;28;20051;-90
2022/04/23 13:18:59;;;;;;;3.53;3.10;;;18.50;58.00;;;;;;5116999;28;20458;-91
2022/04/23 13:21:27;;;;;;;3.92;3.20;;;18.70;57.20;;;;;;5098856;28;20382;-88
2022/04/23 13:23:54;;;;;;;3.15;2.92;;;18.90;56.60;;;;;;5098692;28;20020;-87
2022/04/23 13:26:21;;;;;;;3.55;3.13;;;18.90;56.40;;;;;;5098679;28;20020;-87